sensor_id;sensor_type;location;lat;lon;timestamp;temperature;humidity
52107;DHT22;38105;52.968;5.974;2024-02-26T00:01:25;3.40;99.90
52107;DHT22;38105;52.968;5.974;2024-02-26T00:03:51;3.10;99.90
52107;DHT22;38105;52.968;5.974;2024-02-26T00:06:17;3.50;99.90
52107;DHT22;38105;52.968;5.974;2024-02-26T00:08:43;3.60;99.90
52107;DHT22;38105;52.968;5.974;2024-02-26T00:11:09;3.10;99.90
52107;DHT22;38105;52.968;5.974;2024-02-26T00:13:35;3.40;99.90
52107;DHT22;38105;52.968;5.974;2024-02-26T00:16:01;3.20;99.90
52107;DHT22;38105;52.968;5.974;2024-02-26T00:18:27;3.30;99.90
52107;DHT22;38105;52.968;5.974;2024-02-26T00:20:52;3.10;99.90
52107;DHT22;38105;52.968;5.974;2024-02-26T00:23:18;3.40;99.90
52107;DHT22;38105;52.968;5.974;2024-02-26T00:25:43;3.10;99.90
52107;DHT22;38105;52.968;5.974;2024-02-26T00:28:10;3.40;99.90
52107;DHT22;38105;52.968;5.974;2024-02-26T00:30:35;3.20;99.90
52107;DHT22;38105;52.968;5.974;2024-02-26T00:33:01;3.10;99.90
52107;DHT22;38105;52.968;5.974;2024-02-26T00:35:27;3.30;99.90
52107;DHT22;38105;52.968;5.974;2024-02-26T00:37:52;3.50;99.90
52107;DHT22;38105;52.968;5.974;2024-02-26T00:40:18;3.10;99.90
52107;DHT22;38105;52.968;5.974;2024-02-26T00:42:44;3.00;99.90
52107;DHT22;38105;52.968;5.974;2024-02-26T00:45:14;3.20;99.90
52107;DHT22;38105;52.968;5.974;2024-02-26T00:47:41;3.20;99.90
52107;DHT22;38105;52.968;5.974;2024-02-26T00:50:07;3.30;99.90
52107;DHT22;38105;52.968;5.974;2024-02-26T00:52:34;3.20;99.90
52107;DHT22;38105;52.968;5.974;2024-02-26T00:54:59;3.20;99.90
52107;DHT22;38105;52.968;5.974;2024-02-26T00:57:25;3.20;99.90
52107;DHT22;38105;52.968;5.974;2024-02-26T00:59:51;2.80;99.90
52107;DHT22;38105;52.968;5.974;2024-02-26T01:02:16;3.10;99.90
52107;DHT22;38105;52.968;5.974;2024-02-26T01:04:42;2.90;99.90
52107;DHT22;38105;52.968;5.974;2024-02-26T01:07:08;2.90;99.90
52107;DHT22;38105;52.968;5.974;2024-02-26T01:09:34;3.10;99.90
52107;DHT22;38105;52.968;5.974;2024-02-26T01:12:00;3.20;99.90
52107;DHT22;38105;52.968;5.974;2024-02-26T01:14:25;3.20;99.90
52107;DHT22;38105;52.968;5.974;2024-02-26T01:16:51;3.20;99.90
52107;DHT22;38105;52.968;5.974;2024-02-26T01:19:16;3.20;99.90
52107;DHT22;38105;52.968;5.974;2024-02-26T01:21:42;2.80;99.90
52107;DHT22;38105;52.968;5.974;2024-02-26T01:24:07;3.30;99.90
52107;DHT22;38105;52.968;5.974;2024-02-26T01:26:33;3.20;99.90
52107;DHT22;38105;52.968;5.974;2024-02-26T01:28:59;2.80;99.90
52107;DHT22;38105;52.968;5.974;2024-02-26T01:31:27;3.20;99.90
52107;DHT22;38105;52.968;5.974;2024-02-26T01:33:52;3.10;99.90
52107;DHT22;38105;52.968;5.974;2024-02-26T01:36:18;3.00;99.90
52107;DHT22;38105;52.968;5.974;2024-02-26T01:38:43;2.80;99.90
52107;DHT22;38105;52.968;5.974;2024-02-26T01:41:09;3.10;99.90
52107;DHT22;38105;52.968;5.974;2024-02-26T01:43:34;2.60;99.90
52107;DHT22;38105;52.968;5.974;2024-02-26T01:46:00;2.70;99.90
52107;DHT22;38105;52.968;5.974;2024-02-26T01:48:25;3.00;99.90
52107;DHT22;38105;52.968;5.974;2024-02-26T01:50:51;2.60;99.90
52107;DHT22;38105;52.968;5.974;2024-02-26T01:53:17;3.10;99.90
52107;DHT22;38105;52.968;5.974;2024-02-26T01:55:43;2.60;99.90
52107;DHT22;38105;52.968;5.974;2024-02-26T01:58:08;3.20;99.90
52107;DHT22;38105;52.968;5.974;2024-02-26T02:00:34;3.10;99.90
52107;DHT22;38105;52.968;5.974;2024-02-26T02:03:00;2.60;99.90
52107;DHT22;38105;52.968;5.974;2024-02-26T02:05:26;2.90;99.90
52107;DHT22;38105;52.968;5.974;2024-02-26T02:07:51;3.10;99.90
52107;DHT22;38105;52.968;5.974;2024-02-26T02:10:18;3.00;99.90
52107;DHT22;38105;52.968;5.974;2024-02-26T02:12:48;2.70;99.90
52107;DHT22;38105;52.968;5.974;2024-02-26T02:15:14;3.10;99.90
52107;DHT22;38105;52.968;5.974;2024-02-26T02:17:39;2.90;99.90
52107;DHT22;38105;52.968;5.974;2024-02-26T02:20:08;2.70;99.90
52107;DHT22;38105;52.968;5.974;2024-02-26T02:22:34;2.70;99.90
52107;DHT22;38105;52.968;5.974;2024-02-26T02:25:00;2.60;99.90
52107;DHT22;38105;52.968;5.974;2024-02-26T02:27:26;3.10;99.90
52107;DHT22;38105;52.968;5.974;2024-02-26T02:29:51;2.60;99.90
52107;DHT22;38105;52.968;5.974;2024-02-26T02:32:17;2.70;99.90
52107;DHT22;38105;52.968;5.974;2024-02-26T02:34:43;3.10;99.90
52107;DHT22;38105;52.968;5.974;2024-02-26T02:37:09;2.60;99.90
52107;DHT22;38105;52.968;5.974;2024-02-26T02:39:35;3.00;99.90
52107;DHT22;38105;52.968;5.974;2024-02-26T02:42:00;3.00;99.90
52107;DHT22;38105;52.968;5.974;2024-02-26T02:44:26;2.50;99.90
52107;DHT22;38105;52.968;5.974;2024-02-26T02:46:51;2.50;99.90
52107;DHT22;38105;52.968;5.974;2024-02-26T02:49:18;2.70;99.90
52107;DHT22;38105;52.968;5.974;2024-02-26T02:51:44;2.70;99.90
52107;DHT22;38105;52.968;5.974;2024-02-26T02:54:09;3.00;99.90
52107;DHT22;38105;52.968;5.974;2024-02-26T02:56:35;3.00;99.90
52107;DHT22;38105;52.968;5.974;2024-02-26T02:59:01;3.00;99.90
52107;DHT22;38105;52.968;5.974;2024-02-26T03:01:27;3.00;99.90
52107;DHT22;38105;52.968;5.974;2024-02-26T03:03:52;3.00;99.90
52107;DHT22;38105;52.968;5.974;2024-02-26T03:06:18;2.60;99.90
52107;DHT22;38105;52.968;5.974;2024-02-26T03:08:43;2.60;99.90
52107;DHT22;38105;52.968;5.974;2024-02-26T03:11:13;2.60;99.90
52107;DHT22;38105;52.968;5.974;2024-02-26T03:13:40;2.80;99.90
52107;DHT22;38105;52.968;5.974;2024-02-26T03:16:06;2.70;99.90
52107;DHT22;38105;52.968;5.974;2024-02-26T03:18:32;2.80;99.90
52107;DHT22;38105;52.968;5.974;2024-02-26T03:20:57;2.70;99.90
52107;DHT22;38105;52.968;5.974;2024-02-26T03:23:23;3.00;99.90
52107;DHT22;38105;52.968;5.974;2024-02-26T03:25:48;3.10;99.90
52107;DHT22;38105;52.968;5.974;2024-02-26T03:28:14;3.00;99.90
52107;DHT22;38105;52.968;5.974;2024-02-26T03:30:40;2.80;99.90
52107;DHT22;38105;52.968;5.974;2024-02-26T03:33:05;2.80;99.90
52107;DHT22;38105;52.968;5.974;2024-02-26T03:35:31;2.80;99.90
52107;DHT22;38105;52.968;5.974;2024-02-26T03:37:56;2.70;99.90
52107;DHT22;38105;52.968;5.974;2024-02-26T03:40:22;2.80;99.90
52107;DHT22;38105;52.968;5.974;2024-02-26T03:42:48;3.00;99.90
52107;DHT22;38105;52.968;5.974;2024-02-26T03:45:13;2.70;99.90
52107;DHT22;38105;52.968;5.974;2024-02-26T03:47:39;2.90;99.90
52107;DHT22;38105;52.968;5.974;2024-02-26T03:50:07;2.80;99.90
52107;DHT22;38105;52.968;5.974;2024-02-26T03:52:33;3.00;99.90
52107;DHT22;38105;52.968;5.974;2024-02-26T03:54:59;3.10;99.90
52107;DHT22;38105;52.968;5.974;2024-02-26T03:57:25;2.90;99.90
52107;DHT22;38105;52.968;5.974;2024-02-26T03:59:50;2.90;99.90
52107;DHT22;38105;52.968;5.974;2024-02-26T04:02:16;3.20;99.90
52107;DHT22;38105;52.968;5.974;2024-02-26T04:04:42;3.10;99.90
52107;DHT22;38105;52.968;5.974;2024-02-26T04:07:07;2.90;99.90
52107;DHT22;38105;52.968;5.974;2024-02-26T04:09:33;3.20;99.90
52107;DHT22;38105;52.968;5.974;2024-02-26T04:11:59;3.10;99.90
52107;DHT22;38105;52.968;5.974;2024-02-26T04:14:25;3.20;99.90
52107;DHT22;38105;52.968;5.974;2024-02-26T04:16:51;3.20;99.90
52107;DHT22;38105;52.968;5.974;2024-02-26T04:19:20;3.10;99.90
52107;DHT22;38105;52.968;5.974;2024-02-26T04:21:45;3.00;99.90
52107;DHT22;38105;52.968;5.974;2024-02-26T04:24:11;3.10;99.90
52107;DHT22;38105;52.968;5.974;2024-02-26T04:26:37;3.00;99.90
52107;DHT22;38105;52.968;5.974;2024-02-26T04:29:02;3.10;99.90
52107;DHT22;38105;52.968;5.974;2024-02-26T04:31:28;3.20;99.90
52107;DHT22;38105;52.968;5.974;2024-02-26T04:33:54;3.20;99.90
52107;DHT22;38105;52.968;5.974;2024-02-26T04:36:19;3.10;99.90
52107;DHT22;38105;52.968;5.974;2024-02-26T04:38:45;2.90;99.90
52107;DHT22;38105;52.968;5.974;2024-02-26T04:41:11;3.10;99.90
52107;DHT22;38105;52.968;5.974;2024-02-26T04:43:37;3.20;99.90
52107;DHT22;38105;52.968;5.974;2024-02-26T04:46:09;3.20;99.90
52107;DHT22;38105;52.968;5.974;2024-02-26T04:48:35;3.30;99.90
52107;DHT22;38105;52.968;5.974;2024-02-26T04:51:00;3.10;99.90
52107;DHT22;38105;52.968;5.974;2024-02-26T04:53:26;3.20;99.90
52107;DHT22;38105;52.968;5.974;2024-02-26T04:55:52;3.00;99.90
52107;DHT22;38105;52.968;5.974;2024-02-26T04:58:18;3.10;99.90
52107;DHT22;38105;52.968;5.974;2024-02-26T05:00:43;3.10;99.90
52107;DHT22;38105;52.968;5.974;2024-02-26T05:03:09;2.90;99.90
52107;DHT22;38105;52.968;5.974;2024-02-26T05:05:38;3.10;99.90
52107;DHT22;38105;52.968;5.974;2024-02-26T05:08:04;3.20;99.90
52107;DHT22;38105;52.968;5.974;2024-02-26T05:10:30;3.30;99.90
52107;DHT22;38105;52.968;5.974;2024-02-26T05:12:56;3.40;99.90
52107;DHT22;38105;52.968;5.974;2024-02-26T05:15:21;3.00;99.90
52107;DHT22;38105;52.968;5.974;2024-02-26T05:17:47;3.20;99.90
52107;DHT22;38105;52.968;5.974;2024-02-26T05:20:13;3.10;99.90
52107;DHT22;38105;52.968;5.974;2024-02-26T05:22:38;3.20;99.90
52107;DHT22;38105;52.968;5.974;2024-02-26T05:25:04;3.30;99.90
52107;DHT22;38105;52.968;5.974;2024-02-26T05:27:30;3.30;99.90
52107;DHT22;38105;52.968;5.974;2024-02-26T05:29:55;3.20;99.90
52107;DHT22;38105;52.968;5.974;2024-02-26T05:32:21;3.10;99.90
52107;DHT22;38105;52.968;5.974;2024-02-26T05:34:47;3.10;99.90
52107;DHT22;38105;52.968;5.974;2024-02-26T05:37:12;3.10;99.90
52107;DHT22;38105;52.968;5.974;2024-02-26T05:39:38;3.30;99.90
52107;DHT22;38105;52.968;5.974;2024-02-26T05:42:04;3.10;99.90
52107;DHT22;38105;52.968;5.974;2024-02-26T05:44:30;3.30;99.90
52107;DHT22;38105;52.968;5.974;2024-02-26T05:46:55;3.20;99.90
52107;DHT22;38105;52.968;5.974;2024-02-26T05:49:24;3.30;99.90
52107;DHT22;38105;52.968;5.974;2024-02-26T05:51:50;3.30;99.90
52107;DHT22;38105;52.968;5.974;2024-02-26T05:54:15;3.20;99.90
52107;DHT22;38105;52.968;5.974;2024-02-26T05:56:41;3.20;99.90
52107;DHT22;38105;52.968;5.974;2024-02-26T05:59:06;3.40;99.90
52107;DHT22;38105;52.968;5.974;2024-02-26T06:01:32;3.20;99.90
52107;DHT22;38105;52.968;5.974;2024-02-26T06:03:58;3.30;99.90
52107;DHT22;38105;52.968;5.974;2024-02-26T06:06:24;3.20;99.90
52107;DHT22;38105;52.968;5.974;2024-02-26T06:08:49;3.20;99.90
52107;DHT22;38105;52.968;5.974;2024-02-26T06:11:15;3.30;99.90
52107;DHT22;38105;52.968;5.974;2024-02-26T06:13:40;3.40;99.90
52107;DHT22;38105;52.968;5.974;2024-02-26T06:16:07;3.20;99.90
52107;DHT22;38105;52.968;5.974;2024-02-26T06:18:33;3.20;99.90
52107;DHT22;38105;52.968;5.974;2024-02-26T06:20:59;3.30;99.90
52107;DHT22;38105;52.968;5.974;2024-02-26T06:23:25;3.30;99.90
52107;DHT22;38105;52.968;5.974;2024-02-26T06:25:51;3.20;99.90
52107;DHT22;38105;52.968;5.974;2024-02-26T06:28:16;3.30;99.90
52107;DHT22;38105;52.968;5.974;2024-02-26T06:30:42;3.30;99.90
52107;DHT22;38105;52.968;5.974;2024-02-26T06:33:08;3.20;99.90
52107;DHT22;38105;52.968;5.974;2024-02-26T06:35:33;3.20;99.90
52107;DHT22;38105;52.968;5.974;2024-02-26T06:37:59;3.50;99.90
52107;DHT22;38105;52.968;5.974;2024-02-26T06:40:25;3.30;99.90
52107;DHT22;38105;52.968;5.974;2024-02-26T06:42:51;3.30;99.90
52107;DHT22;38105;52.968;5.974;2024-02-26T06:45:17;3.30;99.90
52107;DHT22;38105;52.968;5.974;2024-02-26T06:47:43;3.20;99.90
52107;DHT22;38105;52.968;5.974;2024-02-26T06:50:11;3.30;99.90
52107;DHT22;38105;52.968;5.974;2024-02-26T06:52:36;3.20;99.90
52107;DHT22;38105;52.968;5.974;2024-02-26T06:55:02;3.50;99.90
52107;DHT22;38105;52.968;5.974;2024-02-26T06:57:28;3.30;99.90
52107;DHT22;38105;52.968;5.974;2024-02-26T06:59:53;3.30;99.90
52107;DHT22;38105;52.968;5.974;2024-02-26T07:02:19;3.50;99.90
52107;DHT22;38105;52.968;5.974;2024-02-26T07:04:45;3.30;99.90
52107;DHT22;38105;52.968;5.974;2024-02-26T07:07:10;3.40;99.90
52107;DHT22;38105;52.968;5.974;2024-02-26T07:09:36;3.40;99.90
52107;DHT22;38105;52.968;5.974;2024-02-26T07:12:01;3.50;99.90
52107;DHT22;38105;52.968;5.974;2024-02-26T07:14:27;3.40;99.90
52107;DHT22;38105;52.968;5.974;2024-02-26T07:16:53;3.40;99.90
52107;DHT22;38105;52.968;5.974;2024-02-26T07:19:19;3.50;99.90
52107;DHT22;38105;52.968;5.974;2024-02-26T07:21:44;3.40;99.90
52107;DHT22;38105;52.968;5.974;2024-02-26T07:24:10;3.50;99.90
52107;DHT22;38105;52.968;5.974;2024-02-26T07:26:35;3.40;99.90
52107;DHT22;38105;52.968;5.974;2024-02-26T07:29:01;3.40;99.90
52107;DHT22;38105;52.968;5.974;2024-02-26T07:31:27;3.40;99.90
52107;DHT22;38105;52.968;5.974;2024-02-26T07:33:52;3.60;99.90
52107;DHT22;38105;52.968;5.974;2024-02-26T07:36:18;3.50;99.90
52107;DHT22;38105;52.968;5.974;2024-02-26T07:38:44;3.60;99.90
52107;DHT22;38105;52.968;5.974;2024-02-26T07:41:10;3.50;99.90
52107;DHT22;38105;52.968;5.974;2024-02-26T07:43:38;3.50;99.90
52107;DHT22;38105;52.968;5.974;2024-02-26T07:46:04;3.80;99.90
52107;DHT22;38105;52.968;5.974;2024-02-26T07:48:30;3.50;99.90
52107;DHT22;38105;52.968;5.974;2024-02-26T07:50:55;3.60;99.90
52107;DHT22;38105;52.968;5.974;2024-02-26T07:53:21;3.70;99.90
52107;DHT22;38105;52.968;5.974;2024-02-26T07:55:47;3.60;99.90
52107;DHT22;38105;52.968;5.974;2024-02-26T07:58:12;3.70;99.90
52107;DHT22;38105;52.968;5.974;2024-02-26T08:00:38;3.60;99.90
52107;DHT22;38105;52.968;5.974;2024-02-26T08:03:04;3.70;99.90
52107;DHT22;38105;52.968;5.974;2024-02-26T08:05:30;3.80;99.90
52107;DHT22;38105;52.968;5.974;2024-02-26T08:07:56;3.80;99.90
52107;DHT22;38105;52.968;5.974;2024-02-26T08:10:21;3.80;99.90
52107;DHT22;38105;52.968;5.974;2024-02-26T08:12:47;3.80;99.90
52107;DHT22;38105;52.968;5.974;2024-02-26T08:15:12;3.80;99.90
52107;DHT22;38105;52.968;5.974;2024-02-26T08:17:38;3.90;99.90
52107;DHT22;38105;52.968;5.974;2024-02-26T08:20:04;3.90;99.90
52107;DHT22;38105;52.968;5.974;2024-02-26T08:22:30;3.90;99.90
52107;DHT22;38105;52.968;5.974;2024-02-26T08:24:58;3.90;99.90
52107;DHT22;38105;52.968;5.974;2024-02-26T08:27:25;4.00;99.90
52107;DHT22;38105;52.968;5.974;2024-02-26T08:29:51;3.90;99.90
52107;DHT22;38105;52.968;5.974;2024-02-26T08:32:17;4.00;99.90
52107;DHT22;38105;52.968;5.974;2024-02-26T08:34:42;4.10;99.90
52107;DHT22;38105;52.968;5.974;2024-02-26T08:37:08;4.10;99.90
52107;DHT22;38105;52.968;5.974;2024-02-26T08:39:33;4.10;99.90
52107;DHT22;38105;52.968;5.974;2024-02-26T08:41:59;4.20;99.90
52107;DHT22;38105;52.968;5.974;2024-02-26T08:44:25;4.20;99.90
52107;DHT22;38105;52.968;5.974;2024-02-26T08:46:51;4.20;99.90
52107;DHT22;38105;52.968;5.974;2024-02-26T08:49:17;4.30;99.90
52107;DHT22;38105;52.968;5.974;2024-02-26T08:51:42;4.30;99.90
52107;DHT22;38105;52.968;5.974;2024-02-26T08:54:09;4.40;99.90
52107;DHT22;38105;52.968;5.974;2024-02-26T08:56:34;4.30;99.90
52107;DHT22;38105;52.968;5.974;2024-02-26T08:59:00;4.30;99.90
52107;DHT22;38105;52.968;5.974;2024-02-26T09:01:32;4.30;99.90
52107;DHT22;38105;52.968;5.974;2024-02-26T09:03:58;4.30;99.90
52107;DHT22;38105;52.968;5.974;2024-02-26T09:06:23;4.40;99.90
52107;DHT22;38105;52.968;5.974;2024-02-26T09:08:49;4.40;99.90
52107;DHT22;38105;52.968;5.974;2024-02-26T09:11:15;4.40;99.90
52107;DHT22;38105;52.968;5.974;2024-02-26T09:13:40;4.50;99.90
52107;DHT22;38105;52.968;5.974;2024-02-26T09:16:06;4.50;99.90
52107;DHT22;38105;52.968;5.974;2024-02-26T09:18:31;4.50;99.90
52107;DHT22;38105;52.968;5.974;2024-02-26T09:20:57;4.50;99.90
52107;DHT22;38105;52.968;5.974;2024-02-26T09:23:22;4.50;99.90
52107;DHT22;38105;52.968;5.974;2024-02-26T09:25:48;4.60;99.90
52107;DHT22;38105;52.968;5.974;2024-02-26T09:28:14;4.70;99.90
52107;DHT22;38105;52.968;5.974;2024-02-26T09:30:42;4.60;99.90
52107;DHT22;38105;52.968;5.974;2024-02-26T09:33:07;4.80;99.90
52107;DHT22;38105;52.968;5.974;2024-02-26T09:35:33;4.80;99.90
52107;DHT22;38105;52.968;5.974;2024-02-26T09:37:59;4.70;99.90
52107;DHT22;38105;52.968;5.974;2024-02-26T09:40:25;4.90;99.90
52107;DHT22;38105;52.968;5.974;2024-02-26T09:42:51;4.80;99.90
52107;DHT22;38105;52.968;5.974;2024-02-26T09:45:18;4.90;99.90
52107;DHT22;38105;52.968;5.974;2024-02-26T09:47:45;4.90;99.90
52107;DHT22;38105;52.968;5.974;2024-02-26T09:50:13;4.90;99.90
52107;DHT22;38105;52.968;5.974;2024-02-26T09:52:41;4.90;99.90
52107;DHT22;38105;52.968;5.974;2024-02-26T09:55:07;5.00;99.90
52107;DHT22;38105;52.968;5.974;2024-02-26T09:57:33;5.00;99.90
52107;DHT22;38105;52.968;5.974;2024-02-26T09:59:59;5.10;99.90
52107;DHT22;38105;52.968;5.974;2024-02-26T10:02:29;5.10;99.90
52107;DHT22;38105;52.968;5.974;2024-02-26T10:04:55;5.20;99.90
52107;DHT22;38105;52.968;5.974;2024-02-26T10:07:23;5.40;99.90
52107;DHT22;38105;52.968;5.974;2024-02-26T10:09:48;5.50;99.90
52107;DHT22;38105;52.968;5.974;2024-02-26T10:12:14;5.30;99.90
52107;DHT22;38105;52.968;5.974;2024-02-26T10:14:41;5.30;99.90
52107;DHT22;38105;52.968;5.974;2024-02-26T10:17:07;5.40;99.90
52107;DHT22;38105;52.968;5.974;2024-02-26T10:19:33;5.40;99.90
52107;DHT22;38105;52.968;5.974;2024-02-26T10:22:00;5.40;99.90
52107;DHT22;38105;52.968;5.974;2024-02-26T10:24:29;5.50;99.90
52107;DHT22;38105;52.968;5.974;2024-02-26T10:26:55;5.60;99.90
52107;DHT22;38105;52.968;5.974;2024-02-26T10:29:21;5.50;99.90
52107;DHT22;38105;52.968;5.974;2024-02-26T10:31:47;5.60;99.90
52107;DHT22;38105;52.968;5.974;2024-02-26T10:34:14;5.70;99.90
52107;DHT22;38105;52.968;5.974;2024-02-26T10:36:40;5.70;99.90
52107;DHT22;38105;52.968;5.974;2024-02-26T10:39:06;5.70;99.90
52107;DHT22;38105;52.968;5.974;2024-02-26T10:41:35;5.80;99.90
52107;DHT22;38105;52.968;5.974;2024-02-26T10:44:01;5.80;99.90
52107;DHT22;38105;52.968;5.974;2024-02-26T10:46:27;5.80;99.90
52107;DHT22;38105;52.968;5.974;2024-02-26T10:48:53;5.90;99.90
52107;DHT22;38105;52.968;5.974;2024-02-26T10:51:37;5.80;99.90
52107;DHT22;38105;52.968;5.974;2024-02-26T10:54:04;5.90;99.90
52107;DHT22;38105;52.968;5.974;2024-02-26T10:56:33;5.90;99.90
52107;DHT22;38105;52.968;5.974;2024-02-26T10:58:59;5.90;99.90
52107;DHT22;38105;52.968;5.974;2024-02-26T11:01:26;5.90;99.90
52107;DHT22;38105;52.968;5.974;2024-02-26T11:03:52;6.00;99.90
52107;DHT22;38105;52.968;5.974;2024-02-26T11:06:19;6.00;99.90
52107;DHT22;38105;52.968;5.974;2024-02-26T11:08:49;6.00;99.90
52107;DHT22;38105;52.968;5.974;2024-02-26T11:11:15;6.00;99.90
52107;DHT22;38105;52.968;5.974;2024-02-26T11:13:42;6.10;99.90
52107;DHT22;38105;52.968;5.974;2024-02-26T11:16:11;6.20;99.90
52107;DHT22;38105;52.968;5.974;2024-02-26T11:18:36;6.30;99.90
52107;DHT22;38105;52.968;5.974;2024-02-26T11:21:03;6.30;99.90
52107;DHT22;38105;52.968;5.974;2024-02-26T11:23:30;6.30;99.90
52107;DHT22;38105;52.968;5.974;2024-02-26T11:25:55;6.40;99.90
52107;DHT22;38105;52.968;5.974;2024-02-26T11:28:22;6.50;99.90
52107;DHT22;38105;52.968;5.974;2024-02-26T11:30:49;6.50;99.90
52107;DHT22;38105;52.968;5.974;2024-02-26T11:33:15;6.60;99.90
52107;DHT22;38105;52.968;5.974;2024-02-26T11:35:41;6.60;99.90
52107;DHT22;38105;52.968;5.974;2024-02-26T11:38:07;6.50;99.90
52107;DHT22;38105;52.968;5.974;2024-02-26T11:40:37;6.50;99.90
52107;DHT22;38105;52.968;5.974;2024-02-26T11:43:06;6.50;99.90
52107;DHT22;38105;52.968;5.974;2024-02-26T11:48:04;6.60;99.90
52107;DHT22;38105;52.968;5.974;2024-02-26T11:50:42;6.50;99.90
52107;DHT22;38105;52.968;5.974;2024-02-26T11:58:33;6.50;99.90
52107;DHT22;38105;52.968;5.974;2024-02-26T12:00:59;6.50;99.90
52107;DHT22;38105;52.968;5.974;2024-02-26T12:03:25;6.50;99.90
52107;DHT22;38105;52.968;5.974;2024-02-26T12:05:51;6.50;99.90
52107;DHT22;38105;52.968;5.974;2024-02-26T12:08:17;6.40;99.90
52107;DHT22;38105;52.968;5.974;2024-02-26T12:10:45;6.50;99.90
52107;DHT22;38105;52.968;5.974;2024-02-26T12:13:12;6.50;99.90
52107;DHT22;38105;52.968;5.974;2024-02-26T12:15:39;6.50;99.90
52107;DHT22;38105;52.968;5.974;2024-02-26T12:18:05;6.40;99.90
52107;DHT22;38105;52.968;5.974;2024-02-26T12:20:31;6.40;99.90
52107;DHT22;38105;52.968;5.974;2024-02-26T12:22:57;6.40;99.90
52107;DHT22;38105;52.968;5.974;2024-02-26T12:25:27;6.40;99.90
52107;DHT22;38105;52.968;5.974;2024-02-26T12:27:53;6.30;99.90
52107;DHT22;38105;52.968;5.974;2024-02-26T12:30:19;6.30;99.90
52107;DHT22;38105;52.968;5.974;2024-02-26T12:32:45;6.30;99.90
52107;DHT22;38105;52.968;5.974;2024-02-26T12:35:11;6.30;99.90
52107;DHT22;38105;52.968;5.974;2024-02-26T12:37:37;6.40;99.90
52107;DHT22;38105;52.968;5.974;2024-02-26T12:40:07;6.40;99.90
52107;DHT22;38105;52.968;5.974;2024-02-26T12:42:38;6.30;99.90
52107;DHT22;38105;52.968;5.974;2024-02-26T12:45:07;6.30;99.90
52107;DHT22;38105;52.968;5.974;2024-02-26T12:47:35;6.30;99.90
52107;DHT22;38105;52.968;5.974;2024-02-26T12:50:00;6.30;99.90
52107;DHT22;38105;52.968;5.974;2024-02-26T12:52:26;6.20;99.90
52107;DHT22;38105;52.968;5.974;2024-02-26T12:54:52;6.20;99.90
52107;DHT22;38105;52.968;5.974;2024-02-26T12:57:17;6.30;99.90
52107;DHT22;38105;52.968;5.974;2024-02-26T12:59:43;6.40;99.90
52107;DHT22;38105;52.968;5.974;2024-02-26T13:02:08;6.30;99.90
52107;DHT22;38105;52.968;5.974;2024-02-26T13:04:34;6.30;99.90
52107;DHT22;38105;52.968;5.974;2024-02-26T13:07:02;6.40;99.90
52107;DHT22;38105;52.968;5.974;2024-02-26T13:09:31;6.40;99.90
52107;DHT22;38105;52.968;5.974;2024-02-26T13:11:57;6.30;99.90
52107;DHT22;38105;52.968;5.974;2024-02-26T13:14:24;6.30;99.90
52107;DHT22;38105;52.968;5.974;2024-02-26T13:16:56;6.30;99.90
52107;DHT22;38105;52.968;5.974;2024-02-26T13:19:22;6.30;99.90
52107;DHT22;38105;52.968;5.974;2024-02-26T13:21:48;6.30;99.90
52107;DHT22;38105;52.968;5.974;2024-02-26T13:24:16;6.30;99.90
52107;DHT22;38105;52.968;5.974;2024-02-26T13:26:43;6.30;99.90
52107;DHT22;38105;52.968;5.974;2024-02-26T13:29:08;6.30;99.90
52107;DHT22;38105;52.968;5.974;2024-02-26T13:31:40;6.30;99.90
52107;DHT22;38105;52.968;5.974;2024-02-26T13:34:06;6.10;99.90
52107;DHT22;38105;52.968;5.974;2024-02-26T13:36:31;6.10;99.90
52107;DHT22;38105;52.968;5.974;2024-02-26T13:38:57;6.10;99.90
52107;DHT22;38105;52.968;5.974;2024-02-26T13:41:22;6.00;99.90
52107;DHT22;38105;52.968;5.974;2024-02-26T13:43:48;6.10;99.90
52107;DHT22;38105;52.968;5.974;2024-02-26T13:46:14;6.10;99.90
52107;DHT22;38105;52.968;5.974;2024-02-26T13:48:41;6.10;99.90
52107;DHT22;38105;52.968;5.974;2024-02-26T13:51:07;6.10;99.90
52107;DHT22;38105;52.968;5.974;2024-02-26T13:53:33;6.00;99.90
52107;DHT22;38105;52.968;5.974;2024-02-26T13:55:58;6.10;99.90
52107;DHT22;38105;52.968;5.974;2024-02-26T13:58:26;6.20;99.90
52107;DHT22;38105;52.968;5.974;2024-02-26T14:00:53;6.00;99.90
52107;DHT22;38105;52.968;5.974;2024-02-26T14:03:19;6.00;99.90
52107;DHT22;38105;52.968;5.974;2024-02-26T14:05:47;6.00;99.90
52107;DHT22;38105;52.968;5.974;2024-02-26T14:08:13;5.90;99.90
52107;DHT22;38105;52.968;5.974;2024-02-26T14:10:41;6.00;99.90
52107;DHT22;38105;52.968;5.974;2024-02-26T14:13:12;6.20;99.90
52107;DHT22;38105;52.968;5.974;2024-02-26T14:15:39;5.90;99.90
52107;DHT22;38105;52.968;5.974;2024-02-26T14:18:07;6.00;99.90
52107;DHT22;38105;52.968;5.974;2024-02-26T14:20:38;5.80;99.90
52107;DHT22;38105;52.968;5.974;2024-02-26T14:23:05;5.90;99.90
52107;DHT22;38105;52.968;5.974;2024-02-26T14:25:32;5.80;99.90
52107;DHT22;38105;52.968;5.974;2024-02-26T14:28:02;6.00;99.90
52107;DHT22;38105;52.968;5.974;2024-02-26T14:30:27;5.90;99.90
52107;DHT22;38105;52.968;5.974;2024-02-26T14:32:56;5.90;99.90
52107;DHT22;38105;52.968;5.974;2024-02-26T14:35:22;5.80;99.90
52107;DHT22;38105;52.968;5.974;2024-02-26T14:37:48;5.80;99.90
52107;DHT22;38105;52.968;5.974;2024-02-26T14:40:15;5.90;99.90
52107;DHT22;38105;52.968;5.974;2024-02-26T14:42:41;5.80;99.90
52107;DHT22;38105;52.968;5.974;2024-02-26T14:45:09;5.80;99.90
52107;DHT22;38105;52.968;5.974;2024-02-26T14:47:38;5.80;99.90
52107;DHT22;38105;52.968;5.974;2024-02-26T14:50:04;5.90;99.90
52107;DHT22;38105;52.968;5.974;2024-02-26T14:52:30;5.80;99.90
52107;DHT22;38105;52.968;5.974;2024-02-26T14:54:56;5.90;99.90
52107;DHT22;38105;52.968;5.974;2024-02-26T14:57:23;5.70;99.90
52107;DHT22;38105;52.968;5.974;2024-02-26T14:59:49;5.80;99.90
52107;DHT22;38105;52.968;5.974;2024-02-26T15:02:16;5.70;99.90
52107;DHT22;38105;52.968;5.974;2024-02-26T15:04:41;5.70;99.90
52107;DHT22;38105;52.968;5.974;2024-02-26T15:07:07;5.70;99.90
52107;DHT22;38105;52.968;5.974;2024-02-26T15:09:33;5.70;99.90
52107;DHT22;38105;52.968;5.974;2024-02-26T15:11:59;5.70;99.90
52107;DHT22;38105;52.968;5.974;2024-02-26T15:14:25;5.60;99.90
52107;DHT22;38105;52.968;5.974;2024-02-26T15:16:52;5.60;99.90
52107;DHT22;38105;52.968;5.974;2024-02-26T15:19:20;5.60;99.90
52107;DHT22;38105;52.968;5.974;2024-02-26T15:21:46;5.60;99.90
52107;DHT22;38105;52.968;5.974;2024-02-26T15:24:14;5.60;99.90
52107;DHT22;38105;52.968;5.974;2024-02-26T15:26:44;5.50;99.90
52107;DHT22;38105;52.968;5.974;2024-02-26T15:29:09;5.60;99.90
52107;DHT22;38105;52.968;5.974;2024-02-26T15:31:35;5.50;99.90
52107;DHT22;38105;52.968;5.974;2024-02-26T15:34:01;5.60;99.90
52107;DHT22;38105;52.968;5.974;2024-02-26T15:36:27;5.50;99.90
52107;DHT22;38105;52.968;5.974;2024-02-26T15:38:53;5.50;99.90
52107;DHT22;38105;52.968;5.974;2024-02-26T15:41:19;5.50;99.90
52107;DHT22;38105;52.968;5.974;2024-02-26T15:43:47;5.50;99.90
52107;DHT22;38105;52.968;5.974;2024-02-26T15:46:12;5.70;99.90